createdAt,value
2022-11-08T00:00:11.763Z,365
2022-11-08T00:01:09.900Z,367
2022-11-08T00:02:10.880Z,364
2022-11-08T00:03:10.264Z,346
2022-11-08T00:04:10.160Z,351
2022-11-08T00:05:10.443Z,348
2022-11-08T00:06:10.407Z,365
2022-11-08T00:07:10.249Z,360
2022-11-08T00:08:10.063Z,363
2022-11-08T00:09:10.724Z,373
2022-11-08T00:10:10.855Z,343
2022-11-08T00:11:10.686Z,347
2022-11-08T00:13:10.335Z,349
2022-11-08T00:14:10.184Z,356
2022-11-08T00:16:09.918Z,357
2022-11-08T00:17:11.029Z,351
2022-11-08T00:18:10.231Z,350
2022-11-08T00:19:10.899Z,355
2022-11-08T00:20:11.026Z,358
2022-11-08T00:21:11.032Z,354
2022-11-08T00:22:10.258Z,347
2022-11-08T00:23:10.744Z,346
2022-11-08T00:24:10.996Z,350
2022-11-08T00:25:10.870Z,352
2022-11-08T00:26:11.094Z,357
2022-11-08T00:27:10.174Z,361
2022-11-08T00:28:10.083Z,363
2022-11-08T00:29:10.630Z,347
2022-11-08T00:31:10.514Z,361
2022-11-08T00:32:10.514Z,366
2022-11-08T00:33:10.150Z,364
2022-11-08T00:34:09.810Z,372
2022-11-08T00:35:10.722Z,373
2022-11-08T00:36:10.584Z,375
2022-11-08T00:37:10.696Z,371
2022-11-08T00:38:10.299Z,368
2022-11-08T00:39:10.788Z,361
2022-11-08T00:40:10.756Z,366
2022-11-08T00:41:10.704Z,363
2022-11-08T00:42:10.261Z,359
2022-11-08T00:43:10.000Z,362
2022-11-08T00:44:10.639Z,359
2022-11-08T00:45:10.745Z,352
2022-11-08T00:46:10.546Z,353
2022-11-08T00:47:10.553Z,355
2022-11-08T00:48:10.143Z,375
2022-11-08T00:49:10.675Z,373
2022-11-08T00:50:10.543Z,364
2022-11-08T00:51:10.328Z,366
2022-11-08T00:52:10.061Z,357
2022-11-08T00:53:10.857Z,352
2022-11-08T00:54:10.595Z,354
2022-11-08T00:55:10.382Z,357
2022-11-08T00:56:09.985Z,360
2022-11-08T00:57:10.646Z,364
2022-11-08T00:58:10.622Z,369
2022-11-08T00:59:10.799Z,374
2022-11-08T01:00:11.035Z,356
2022-11-08T01:01:11.846Z,350
2022-11-08T01:02:10.882Z,354
2022-11-08T01:03:10.755Z,345
2022-11-08T01:04:10.369Z,351
2022-11-08T01:05:10.354Z,340
2022-11-08T01:06:10.357Z,390
2022-11-08T01:07:10.161Z,359
2022-11-08T01:08:10.186Z,358
2022-11-08T01:09:10.758Z,360
2022-11-08T01:10:10.279Z,370
2022-11-08T01:11:10.243Z,352
2022-11-08T01:12:10.113Z,358
2022-11-08T01:13:09.877Z,354
2022-11-08T01:14:10.741Z,342
2022-11-08T01:15:10.755Z,348
2022-11-08T01:16:10.648Z,353
2022-11-08T01:17:10.349Z,363
2022-11-08T01:18:10.237Z,370
2022-11-08T01:19:10.672Z,373
2022-11-08T01:20:10.503Z,365
2022-11-08T01:21:10.247Z,363
2022-11-08T01:22:09.963Z,352
2022-11-08T01:23:09.830Z,347
2022-11-08T01:24:10.651Z,344
2022-11-08T01:25:10.458Z,356
2022-11-08T01:26:10.032Z,361
2022-11-08T01:27:09.998Z,365
2022-11-08T01:28:11.068Z,364
2022-11-08T01:29:10.644Z,359
2022-11-08T01:31:10.449Z,363
2022-11-08T01:32:10.174Z,364
2022-11-08T01:33:09.967Z,353
2022-11-08T01:34:10.863Z,349
2022-11-08T01:35:10.593Z,353
2022-11-08T01:36:10.539Z,355
2022-11-08T01:37:10.025Z,359
2022-11-08T01:38:10.780Z,354
2022-11-08T01:39:10.178Z,360
2022-11-08T01:40:09.772Z,349
2022-11-08T01:41:10.445Z,347
2022-11-08T01:42:10.417Z,362
2022-11-08T01:44:10.137Z,360
2022-11-08T01:45:10.004Z,355
2022-11-08T01:46:10.813Z,347
2022-11-08T01:47:10.588Z,360
2022-11-08T01:48:10.160Z,357
2022-11-08T01:49:10.632Z,358
2022-11-08T01:50:10.086Z,357
2022-11-08T01:51:10.787Z,356
2022-11-08T01:52:10.305Z,351
2022-11-08T01:53:09.839Z,344
2022-11-08T01:54:10.654Z,354
2022-11-08T01:55:10.593Z,356
2022-11-08T01:56:10.599Z,364
2022-11-08T01:57:10.549Z,363
2022-11-08T01:58:10.473Z,358
2022-11-08T01:59:09.749Z,348
2022-11-08T02:00:11.189Z,354
2022-11-08T02:01:10.531Z,360
2022-11-08T02:03:11.154Z,350
2022-11-08T02:04:10.181Z,355
2022-11-08T02:05:10.381Z,366
2022-11-08T02:06:10.056Z,370
2022-11-08T02:07:10.070Z,364
2022-11-08T02:08:11.045Z,367
2022-11-08T02:09:10.100Z,364
2022-11-08T02:10:10.000Z,358
2022-11-08T02:11:09.910Z,354
2022-11-08T02:12:10.607Z,355
2022-11-08T02:13:14.432Z,348
2022-11-08T02:14:10.645Z,352
2022-11-08T02:15:10.889Z,359
2022-11-08T02:16:10.798Z,351
2022-11-08T02:17:10.686Z,352
2022-11-08T02:18:10.630Z,354
2022-11-08T02:19:09.990Z,355
2022-11-08T02:20:11.089Z,354
2022-11-08T02:21:10.586Z,359
2022-11-08T02:22:10.508Z,367
2022-11-08T02:23:09.768Z,352
2022-11-08T02:24:10.554Z,386
2022-11-08T02:25:10.663Z,369
2022-11-08T02:26:10.337Z,367
2022-11-08T02:27:10.126Z,357
2022-11-08T02:28:09.906Z,362
2022-11-08T02:29:10.093Z,365
2022-11-08T02:30:10.404Z,354
2022-11-08T02:31:10.161Z,357
2022-11-08T02:32:09.913Z,362
2022-11-08T02:33:10.937Z,366
2022-11-08T02:34:10.571Z,351
2022-11-08T02:35:10.465Z,350
2022-11-08T02:36:10.165Z,357
2022-11-08T02:37:10.304Z,360
2022-11-08T02:39:10.439Z,364
2022-11-08T02:40:10.281Z,367
2022-11-08T02:41:10.112Z,361
2022-11-08T02:42:10.128Z,343
2022-11-08T02:43:11.007Z,396
2022-11-08T02:44:10.724Z,367
2022-11-08T02:45:10.691Z,351
2022-11-08T02:46:09.946Z,353
2022-11-08T02:47:10.992Z,355
2022-11-08T02:48:10.610Z,348
2022-11-08T02:49:09.990Z,356
2022-11-08T02:50:10.888Z,364
2022-11-08T02:51:10.925Z,357
2022-11-08T02:52:10.608Z,360
2022-11-08T02:53:09.966Z,352
2022-11-08T02:54:10.721Z,359
2022-11-08T02:55:10.681Z,360
2022-11-08T02:57:10.107Z,357
2022-11-08T02:58:10.731Z,354
2022-11-08T02:59:10.096Z,357
2022-11-08T03:00:11.538Z,351
2022-11-08T03:01:10.756Z,350
2022-11-08T03:02:10.508Z,340
2022-11-08T03:03:10.757Z,381
2022-11-08T03:04:10.373Z,378
2022-11-08T03:05:10.233Z,372
2022-11-08T03:07:10.544Z,373
2022-11-08T03:08:10.146Z,396
2022-11-08T03:09:10.821Z,404
2022-11-08T03:10:10.497Z,402
2022-11-08T03:11:10.260Z,417
2022-11-08T03:12:10.207Z,419
2022-11-08T03:13:10.936Z,411
2022-11-08T03:14:10.640Z,389
2022-11-08T03:15:10.389Z,385
2022-11-08T03:16:10.036Z,390
2022-11-08T03:18:10.552Z,396
2022-11-08T03:19:10.831Z,392
2022-11-08T03:20:10.287Z,390
2022-11-08T03:21:10.191Z,375
2022-11-08T03:22:10.843Z,378
2022-11-08T03:23:10.379Z,370
2022-11-08T03:24:10.049Z,382
2022-11-08T03:25:10.850Z,375
2022-11-08T03:26:10.409Z,365
2022-11-08T03:27:10.153Z,366
2022-11-08T03:28:09.802Z,365
2022-11-08T03:29:10.898Z,363
2022-11-08T03:30:10.729Z,370
2022-11-08T03:31:10.471Z,364
2022-11-08T03:32:10.351Z,373
2022-11-08T03:33:09.794Z,369
2022-11-08T03:34:10.383Z,366
2022-11-08T03:35:09.936Z,370
2022-11-08T03:36:10.586Z,371
2022-11-08T03:37:10.042Z,373
2022-11-08T03:38:10.526Z,366
2022-11-08T03:40:11.002Z,373
2022-11-08T03:41:10.838Z,374
2022-11-08T03:42:10.552Z,368
2022-11-08T03:43:10.053Z,376
2022-11-08T03:44:10.121Z,355
2022-11-08T03:45:11.022Z,373
2022-11-08T03:46:10.472Z,384
2022-11-08T03:47:10.166Z,392
2022-11-08T03:48:10.886Z,390
2022-11-08T03:49:10.166Z,389
2022-11-08T03:50:10.217Z,393
2022-11-08T03:51:10.216Z,390
2022-11-08T03:52:10.039Z,395
2022-11-08T03:53:10.765Z,392
2022-11-08T03:55:10.237Z,387
2022-11-08T03:56:09.833Z,377
2022-11-08T03:57:10.660Z,384
2022-11-08T03:58:10.705Z,387
2022-11-08T03:59:10.114Z,385
2022-11-08T04:00:11.510Z,375
2022-11-08T04:01:10.478Z,386
2022-11-08T04:02:10.395Z,381
2022-11-08T04:03:10.450Z,376
2022-11-08T04:04:10.370Z,401
2022-11-08T04:05:10.118Z,390
2022-11-08T04:06:10.170Z,370
2022-11-08T04:07:10.250Z,368
2022-11-08T04:08:10.137Z,369
2022-11-08T04:09:10.698Z,375
2022-11-08T04:10:10.806Z,376
2022-11-08T04:11:10.847Z,375
2022-11-08T04:12:11.023Z,387
2022-11-08T04:13:11.081Z,386
2022-11-08T04:14:15.074Z,380
2022-11-08T04:15:11.389Z,376
2022-11-08T04:16:18.024Z,372
2022-11-08T04:17:11.066Z,365
2022-11-08T04:18:10.794Z,372
2022-11-08T04:19:10.369Z,370
2022-11-08T04:20:10.483Z,359
2022-11-08T04:21:10.637Z,371
2022-11-08T04:22:10.453Z,368
2022-11-08T04:23:10.464Z,382
2022-11-08T04:24:10.555Z,361
2022-11-08T04:25:10.669Z,363
2022-11-08T04:26:10.686Z,376
2022-11-08T04:27:10.694Z,370
2022-11-08T04:28:10.663Z,369
2022-11-08T04:29:10.959Z,379
2022-11-08T04:30:11.004Z,381
2022-11-08T04:31:10.928Z,378
2022-11-08T04:33:11.031Z,375
2022-11-08T04:34:09.971Z,374
2022-11-08T04:35:10.778Z,368
2022-11-08T04:36:10.802Z,359
2022-11-08T04:37:10.978Z,366
2022-11-08T04:38:10.906Z,372
2022-11-08T04:40:10.239Z,376
2022-11-08T04:41:10.136Z,370
2022-11-08T04:42:10.282Z,362
2022-11-08T04:43:10.294Z,387
2022-11-08T04:44:10.488Z,361
2022-11-08T04:45:10.682Z,371
2022-11-08T04:46:10.503Z,381
2022-11-08T04:47:10.128Z,380
2022-11-08T04:48:10.005Z,385
2022-11-08T04:49:10.344Z,391
2022-11-08T04:50:10.309Z,388
2022-11-08T04:51:10.300Z,379
2022-11-08T04:52:10.026Z,374
2022-11-08T04:53:11.056Z,378
2022-11-08T04:54:10.700Z,382
2022-11-08T04:55:10.523Z,379
2022-11-08T04:56:10.433Z,368
2022-11-08T04:57:10.285Z,378
2022-11-08T04:58:10.042Z,381
2022-11-08T04:59:12.023Z,376
2022-11-08T05:00:10.768Z,379
2022-11-08T05:02:10.625Z,377
2022-11-08T05:03:11.047Z,373
2022-11-08T05:04:10.949Z,364
2022-11-08T05:05:11.103Z,367
2022-11-08T05:06:10.062Z,372
2022-11-08T05:07:09.970Z,358
2022-11-08T05:08:11.106Z,361
2022-11-08T05:09:10.494Z,362
2022-11-08T05:10:10.454Z,364
2022-11-08T05:11:10.661Z,365
2022-11-08T05:12:10.600Z,373
2022-11-08T05:13:10.349Z,377
2022-11-08T05:14:10.158Z,369
2022-11-08T05:15:10.755Z,358
2022-11-08T05:16:10.755Z,357
2022-11-08T05:17:10.752Z,363
2022-11-08T05:18:10.481Z,360
2022-11-08T05:19:13.190Z,369
2022-11-08T05:21:10.339Z,363
2022-11-08T05:22:10.328Z,369
2022-11-08T05:23:10.492Z,374
2022-11-08T05:24:10.447Z,380
2022-11-08T05:25:10.699Z,354
2022-11-08T05:26:10.840Z,368
2022-11-08T05:27:10.712Z,372
2022-11-08T05:29:10.310Z,371
2022-11-08T05:30:10.589Z,359
2022-11-08T05:31:10.504Z,367
2022-11-08T05:32:10.188Z,375
2022-11-08T05:33:10.261Z,371
2022-11-08T05:34:10.199Z,363
2022-11-08T05:35:10.401Z,372
2022-11-08T05:36:10.687Z,371
2022-11-08T05:37:10.814Z,364
2022-11-08T05:38:10.732Z,374
2022-11-08T05:39:10.075Z,378
2022-11-08T05:40:10.261Z,379
2022-11-08T05:41:10.180Z,370
2022-11-08T05:42:10.410Z,371
2022-11-08T05:43:10.264Z,366
2022-11-08T05:45:10.870Z,346
2022-11-08T05:47:10.145Z,357
2022-11-08T05:48:10.052Z,365
2022-11-08T05:49:10.469Z,377
2022-11-08T05:51:09.867Z,371
2022-11-08T05:52:10.787Z,370
2022-11-08T05:53:10.746Z,367
2022-11-08T05:54:10.239Z,371
2022-11-08T05:55:10.262Z,373
2022-11-08T05:56:10.040Z,372
2022-11-08T05:57:10.866Z,374
2022-11-08T05:58:10.002Z,371
2022-11-08T05:59:10.754Z,366
2022-11-08T06:00:11.451Z,375
2022-11-08T06:02:10.600Z,377
2022-11-08T06:03:10.830Z,381
2022-11-08T06:04:10.763Z,378
2022-11-08T06:05:10.577Z,342
2022-11-08T06:06:10.342Z,361
2022-11-08T06:07:10.641Z,363
2022-11-08T06:08:11.081Z,365
2022-11-08T06:09:10.665Z,372
2022-11-08T06:10:10.759Z,369
2022-11-08T06:11:11.078Z,359
2022-11-08T06:12:10.609Z,363
2022-11-08T06:13:10.604Z,366
2022-11-08T06:14:10.566Z,373
2022-11-08T06:15:10.826Z,376
2022-11-08T06:16:10.875Z,375
2022-11-08T06:17:10.834Z,378
2022-11-08T06:18:10.659Z,366
2022-11-08T06:19:10.528Z,363
2022-11-08T06:20:10.687Z,364
2022-11-08T06:21:10.667Z,372
2022-11-08T06:22:10.798Z,363
2022-11-08T06:23:10.043Z,367
2022-11-08T06:25:10.372Z,376
2022-11-08T06:26:10.282Z,372
2022-11-08T06:27:10.352Z,379
2022-11-08T06:28:10.372Z,371
2022-11-08T06:29:10.424Z,373
2022-11-08T06:30:10.723Z,367
2022-11-08T06:31:10.734Z,365
2022-11-08T06:32:10.434Z,376
2022-11-08T06:33:10.754Z,384
2022-11-08T06:34:10.595Z,367
2022-11-08T06:35:10.496Z,366
2022-11-08T06:36:10.163Z,374
2022-11-08T06:37:10.127Z,375
2022-11-08T06:38:09.998Z,372
2022-11-08T06:39:10.114Z,377
2022-11-08T06:40:10.219Z,386
2022-11-08T06:41:10.053Z,387
2022-11-08T06:42:09.938Z,376
2022-11-08T06:43:14.973Z,368
2022-11-08T06:44:10.225Z,367
2022-11-08T06:45:10.798Z,384
2022-11-08T06:46:10.812Z,361
2022-11-08T06:47:10.728Z,357
2022-11-08T06:48:10.805Z,366
2022-11-08T06:49:11.134Z,380
2022-11-08T06:50:10.654Z,375
2022-11-08T06:51:11.301Z,374
2022-11-08T06:52:10.719Z,380
2022-11-08T06:53:11.325Z,388
2022-11-08T06:54:15.458Z,385
2022-11-08T06:55:11.229Z,381
2022-11-08T06:56:10.252Z,380
2022-11-08T06:57:10.232Z,378
2022-11-08T06:58:10.401Z,374
2022-11-08T06:59:10.328Z,377
2022-11-08T07:00:10.852Z,379
2022-11-08T07:01:24.631Z,377
2022-11-08T07:02:11.110Z,379
2022-11-08T07:03:10.670Z,378
2022-11-08T07:04:10.198Z,385
2022-11-08T07:05:10.377Z,391
2022-11-08T07:06:10.292Z,376
2022-11-08T07:07:10.737Z,370
2022-11-08T07:08:10.869Z,369
2022-11-08T07:09:11.190Z,367
2022-11-08T07:10:09.916Z,380
2022-11-08T07:11:11.007Z,384
2022-11-08T07:12:10.205Z,379
2022-11-08T07:13:10.873Z,380
2022-11-08T07:14:10.880Z,382
2022-11-08T07:15:29.245Z,377
2022-11-08T07:16:10.564Z,379
2022-11-08T07:17:10.872Z,375
2022-11-08T07:18:10.267Z,374
2022-11-08T07:19:10.325Z,380
2022-11-08T07:20:10.509Z,371
2022-11-08T07:21:10.446Z,369
2022-11-08T07:22:10.561Z,355
2022-11-08T07:23:10.517Z,357
2022-11-08T07:24:10.868Z,356
2022-11-08T07:25:10.898Z,358
2022-11-08T07:26:10.063Z,351
2022-11-08T07:27:10.535Z,353
2022-11-08T07:28:12.140Z,354
2022-11-08T07:29:14.766Z,360
2022-11-08T07:30:11.086Z,363
2022-11-08T07:31:10.307Z,365
2022-11-08T07:32:10.202Z,371
2022-11-08T07:33:10.612Z,365
2022-11-08T07:35:11.046Z,369
2022-11-08T07:36:10.337Z,364
2022-11-08T07:37:10.487Z,361
2022-11-08T07:38:10.434Z,359
2022-11-08T07:39:10.689Z,357
2022-11-08T07:41:10.055Z,355
2022-11-08T07:42:11.259Z,349
2022-11-08T07:43:12.600Z,356
2022-11-08T07:44:10.033Z,347
2022-11-08T07:45:10.283Z,350
2022-11-08T07:46:10.466Z,357
2022-11-08T07:47:10.236Z,345
2022-11-08T07:48:12.427Z,361
2022-11-08T07:49:10.971Z,366
2022-11-08T07:50:11.000Z,361
2022-11-08T07:51:10.258Z,369
2022-11-08T07:52:10.268Z,368
2022-11-08T07:53:10.301Z,363
2022-11-08T07:54:10.944Z,355
2022-11-08T07:55:11.290Z,358
2022-11-08T07:56:10.543Z,364
2022-11-08T07:57:11.972Z,361
2022-11-08T07:58:10.166Z,365
2022-11-08T07:59:10.460Z,356
2022-11-08T08:00:11.390Z,346
2022-11-08T08:01:10.879Z,354
2022-11-08T08:02:10.845Z,356
2022-11-08T08:03:10.444Z,362
2022-11-08T08:04:10.725Z,361
2022-11-08T08:05:11.065Z,362
2022-11-08T08:06:10.644Z,358
2022-11-08T08:07:11.008Z,360
2022-11-08T08:08:10.250Z,358
2022-11-08T08:09:10.495Z,359
2022-11-08T08:10:10.936Z,356
2022-11-08T08:11:11.041Z,359
2022-11-08T08:12:10.146Z,367
2022-11-08T08:13:10.283Z,364
2022-11-08T08:14:11.270Z,362
2022-11-08T08:15:10.751Z,359
2022-11-08T08:16:10.993Z,365
2022-11-08T08:18:10.521Z,362
2022-11-08T08:19:11.104Z,354
2022-11-08T08:20:10.331Z,359
2022-11-08T08:21:10.660Z,357
2022-11-08T08:22:10.552Z,360
2022-11-08T08:23:10.842Z,354
2022-11-08T08:24:10.828Z,348
2022-11-08T08:25:11.159Z,358
2022-11-08T08:26:10.445Z,343
2022-11-08T08:27:10.828Z,374
2022-11-08T08:29:10.395Z,363
2022-11-08T08:30:10.506Z,371
2022-11-08T08:31:10.783Z,360
2022-11-08T08:32:10.746Z,356
2022-11-08T08:33:29.105Z,363
2022-11-08T08:34:10.295Z,359
2022-11-08T08:35:10.392Z,345
2022-11-08T08:36:10.285Z,353
2022-11-08T08:37:10.460Z,361
2022-11-08T08:38:10.441Z,359
2022-11-08T08:39:10.703Z,362
2022-11-08T08:40:10.774Z,352
2022-11-08T08:41:10.613Z,355
2022-11-08T08:42:10.564Z,354
2022-11-08T08:43:10.873Z,347
2022-11-08T08:44:10.463Z,338
2022-11-08T08:45:14.715Z,358
2022-11-08T08:46:10.995Z,366
2022-11-08T08:47:11.245Z,352
2022-11-08T08:48:10.492Z,357
2022-11-08T08:49:10.873Z,356
2022-11-08T08:50:11.154Z,357
2022-11-08T08:51:10.377Z,356
2022-11-08T08:52:10.722Z,357
2022-11-08T08:53:11.172Z,354
2022-11-08T08:54:11.021Z,348
2022-11-08T08:55:10.616Z,357
2022-11-08T08:57:11.161Z,356
2022-11-08T08:58:10.362Z,362
2022-11-08T09:01:38.571Z,350
2022-11-08T09:02:10.624Z,352
2022-11-08T09:03:11.158Z,361
2022-11-08T09:04:11.237Z,371
2022-11-08T09:05:10.610Z,343
2022-11-08T09:06:10.716Z,335
2022-11-08T09:07:10.805Z,349
2022-11-08T09:08:15.806Z,344
2022-11-08T09:09:11.240Z,345
2022-11-08T09:10:10.094Z,349
2022-11-08T09:11:10.376Z,360
2022-11-08T09:12:11.911Z,352
2022-11-08T09:13:10.628Z,362
2022-11-08T09:15:10.933Z,350
2022-11-08T09:16:11.210Z,358
2022-11-08T09:17:10.412Z,361
2022-11-08T09:18:10.811Z,360
2022-11-08T09:19:10.943Z,353
2022-11-08T09:20:11.016Z,342
2022-11-08T09:21:10.077Z,343
2022-11-08T09:22:11.129Z,350
2022-11-08T09:23:10.265Z,360
2022-11-08T09:24:10.116Z,342
2022-11-08T09:26:10.747Z,345
2022-11-08T09:27:10.965Z,352
2022-11-08T09:28:11.097Z,353
2022-11-08T09:29:11.006Z,357
2022-11-08T09:30:11.243Z,360
2022-11-08T09:31:10.453Z,369
2022-11-08T09:32:10.497Z,373
2022-11-08T09:33:10.545Z,378
2022-11-08T09:34:24.252Z,354
2022-11-08T09:35:10.485Z,344
2022-11-08T09:36:29.684Z,348
2022-11-08T09:37:10.571Z,352
2022-11-08T09:38:10.599Z,356
2022-11-08T09:39:10.526Z,348
2022-11-08T09:40:10.902Z,352
2022-11-08T09:41:10.909Z,359
2022-11-08T09:42:10.820Z,348
2022-11-08T09:43:10.873Z,373
2022-11-08T09:44:29.200Z,368
2022-11-08T09:45:10.342Z,362
2022-11-08T09:46:10.500Z,361
2022-11-08T09:48:32.775Z,352
2022-11-08T09:49:10.760Z,347
2022-11-08T09:50:10.847Z,345
2022-11-08T09:51:11.309Z,359
2022-11-08T09:52:32.961Z,352
2022-11-08T09:53:10.468Z,356
2022-11-08T09:54:10.164Z,366
2022-11-08T09:55:11.131Z,359
2022-11-08T09:56:10.390Z,366
2022-11-08T09:57:10.832Z,360
2022-11-08T09:58:10.912Z,344
2022-11-08T09:59:10.088Z,348
2022-11-08T10:00:11.463Z,344
2022-11-08T10:01:10.244Z,364
2022-11-08T10:02:10.421Z,332
2022-11-08T10:03:11.350Z,341
2022-11-08T10:04:11.084Z,359
2022-11-08T10:05:10.522Z,363
2022-11-08T10:06:11.990Z,368
2022-11-08T10:07:11.142Z,367
2022-11-08T10:08:11.122Z,360
2022-11-08T10:09:09.126Z,359
2022-11-08T10:10:09.720Z,368
2022-11-08T10:11:10.695Z,370
2022-11-08T10:12:10.830Z,368
2022-11-08T10:13:10.840Z,355
2022-11-08T10:14:10.595Z,358
2022-11-08T10:15:11.486Z,350
2022-11-08T10:16:10.664Z,345
2022-11-08T10:17:10.961Z,347
2022-11-08T10:18:10.233Z,350
2022-11-08T10:19:10.685Z,351
2022-11-08T10:20:11.273Z,344
2022-11-08T10:21:10.859Z,340
2022-11-08T10:22:10.407Z,349
2022-11-08T10:23:10.675Z,348
2022-11-08T10:24:10.348Z,351
2022-11-08T10:25:10.807Z,349
2022-11-08T10:26:11.010Z,348
2022-11-08T10:27:10.926Z,345
2022-11-08T10:28:10.963Z,348
2022-11-08T10:29:09.997Z,342
2022-11-08T10:30:10.655Z,351
2022-11-08T10:31:11.046Z,358
2022-11-08T10:32:10.322Z,356
2022-11-08T10:33:10.792Z,354
2022-11-08T10:34:10.553Z,341
2022-11-08T10:35:10.993Z,350
2022-11-08T10:36:10.529Z,353
2022-11-08T10:37:10.775Z,339
2022-11-08T10:38:11.004Z,368
2022-11-08T10:39:10.415Z,355
2022-11-08T10:40:11.092Z,338
2022-11-08T10:41:10.489Z,343
2022-11-08T10:42:11.010Z,346
2022-11-08T10:43:10.487Z,334
2022-11-08T10:44:10.810Z,337
2022-11-08T10:45:11.409Z,350
2022-11-08T10:46:10.692Z,341
2022-11-08T10:47:11.254Z,353
2022-11-08T10:48:10.943Z,348
2022-11-08T10:49:10.975Z,341
2022-11-08T10:50:11.281Z,356
2022-11-08T10:51:11.083Z,353
2022-11-08T10:52:10.417Z,343
2022-11-08T10:53:10.708Z,352
2022-11-08T10:54:10.842Z,355
2022-11-08T10:55:11.237Z,362
2022-11-08T10:56:10.558Z,344
2022-11-08T10:57:11.247Z,377
2022-11-08T10:58:10.710Z,364
2022-11-08T10:59:10.749Z,359
2022-11-08T11:00:11.446Z,347
2022-11-08T11:01:11.536Z,350
2022-11-08T11:02:10.394Z,348
2022-11-08T11:03:11.120Z,351
2022-11-08T11:04:10.479Z,359
2022-11-08T11:05:11.311Z,354
2022-11-08T11:06:10.744Z,346
2022-11-08T11:07:10.839Z,351
2022-11-08T11:08:10.516Z,350
2022-11-08T11:09:10.680Z,352
2022-11-08T11:10:12.221Z,353
2022-11-08T11:11:10.720Z,344
2022-11-08T11:12:11.142Z,338
2022-11-08T11:13:10.520Z,343
2022-11-08T11:14:13.109Z,322
2022-11-08T11:15:10.217Z,358
2022-11-08T11:16:10.338Z,357
2022-11-08T11:18:11.242Z,347
2022-11-08T11:19:10.901Z,342
2022-11-08T11:20:11.066Z,344
2022-11-08T11:21:10.189Z,346
2022-11-08T11:22:10.789Z,338
2022-11-08T11:23:11.221Z,335
2022-11-08T11:24:10.686Z,337
2022-11-08T11:25:10.609Z,336
2022-11-08T11:26:10.836Z,339
2022-11-08T11:27:11.234Z,338
2022-11-08T11:28:10.397Z,331
2022-11-08T11:29:10.465Z,341
2022-11-08T11:30:11.881Z,344
2022-11-08T11:31:10.696Z,348
2022-11-08T11:32:11.244Z,356
2022-11-08T11:33:11.088Z,349
2022-11-08T11:34:11.124Z,342
2022-11-08T11:35:10.917Z,340
2022-11-08T11:36:13.665Z,348
2022-11-08T11:37:10.083Z,352
2022-11-08T11:38:11.010Z,342
2022-11-08T11:39:11.150Z,338
2022-11-08T11:41:11.261Z,340
2022-11-08T11:42:31.223Z,346
2022-11-08T11:43:10.625Z,337
2022-11-08T11:44:11.066Z,342
2022-11-08T11:45:10.756Z,344
2022-11-08T11:46:10.936Z,349
2022-11-08T11:47:11.122Z,351
2022-11-08T11:48:10.521Z,346
2022-11-08T11:49:10.369Z,334
2022-11-08T11:50:10.753Z,343
2022-11-08T11:51:11.064Z,340
2022-11-08T11:52:10.341Z,331
2022-11-08T11:53:10.715Z,333
2022-11-08T11:54:11.042Z,341
2022-11-08T11:55:10.337Z,342
2022-11-08T11:56:10.704Z,341
2022-11-08T11:57:10.933Z,336
2022-11-08T11:58:10.625Z,341
2022-11-08T11:59:11.227Z,333
2022-11-08T12:00:10.873Z,342
2022-11-08T12:01:14.187Z,350
2022-11-08T12:02:10.963Z,345
2022-11-08T12:03:10.448Z,341
2022-11-08T12:04:10.654Z,343
2022-11-08T12:05:10.951Z,344
2022-11-08T12:06:11.014Z,347
2022-11-08T12:07:11.360Z,336
2022-11-08T12:08:10.796Z,348
2022-11-08T12:09:10.979Z,332
2022-11-08T12:10:11.277Z,338
2022-11-08T12:11:10.576Z,345
2022-11-08T12:12:10.844Z,344
2022-11-08T12:13:11.096Z,349
2022-11-08T12:14:11.261Z,342
2022-11-08T12:16:11.266Z,341
2022-11-08T12:17:10.651Z,340
2022-11-08T12:19:11.234Z,329
2022-11-08T12:20:10.601Z,333
2022-11-08T12:22:10.962Z,334
2022-11-08T12:23:11.049Z,332
2022-11-08T12:24:11.274Z,331
2022-11-08T12:25:10.699Z,333
2022-11-08T12:26:11.290Z,338
2022-11-08T12:27:10.815Z,324
2022-11-08T12:28:10.894Z,333
2022-11-08T12:29:10.486Z,331
2022-11-08T12:31:11.515Z,334
2022-11-08T12:32:10.864Z,339
2022-11-08T12:33:10.313Z,344
2022-11-08T12:34:10.625Z,346
2022-11-08T12:35:11.000Z,339
2022-11-08T12:36:10.352Z,337
2022-11-08T12:37:10.443Z,333
2022-11-08T12:38:11.094Z,337
2022-11-08T12:39:11.136Z,334
2022-11-08T12:40:10.787Z,330
2022-11-08T12:41:11.266Z,339
2022-11-08T12:42:10.693Z,322
2022-11-08T12:43:11.715Z,375
2022-11-08T12:44:11.267Z,356
2022-11-08T12:45:10.920Z,338
2022-11-08T12:47:10.779Z,330
2022-11-08T12:48:10.669Z,334
2022-11-08T12:49:10.628Z,336
2022-11-08T12:50:11.042Z,340
2022-11-08T12:52:10.811Z,336
2022-11-08T12:53:11.264Z,344
2022-11-08T12:54:10.489Z,348
2022-11-08T12:55:10.851Z,336
2022-11-08T12:56:11.173Z,334
2022-11-08T12:57:10.793Z,335
2022-11-08T12:58:11.237Z,338
2022-11-08T12:59:11.156Z,333
2022-11-08T13:00:11.390Z,363
2022-11-08T13:01:11.052Z,314
2022-11-08T13:02:10.567Z,307
2022-11-08T13:03:11.382Z,327
2022-11-08T13:04:10.907Z,323
2022-11-08T13:05:10.336Z,328
2022-11-08T13:06:10.964Z,331
2022-11-08T13:07:10.727Z,337
2022-11-08T13:08:11.272Z,344
2022-11-08T13:09:11.564Z,343
2022-11-08T13:11:11.119Z,353
2022-11-08T13:12:10.300Z,356
2022-11-08T13:13:10.717Z,348
2022-11-08T13:14:10.994Z,347
2022-11-08T13:15:10.577Z,350
2022-11-08T13:16:10.968Z,348
2022-11-08T13:17:10.422Z,333
2022-11-08T13:18:10.890Z,322
2022-11-08T13:19:11.388Z,333
2022-11-08T13:20:10.866Z,344
2022-11-08T13:21:10.960Z,337
2022-11-08T13:22:10.337Z,340
2022-11-08T13:23:11.272Z,342
2022-11-08T13:24:42.418Z,348
2022-11-08T13:25:10.800Z,345
2022-11-08T13:26:11.269Z,343
2022-11-08T13:27:10.805Z,342
2022-11-08T13:28:11.312Z,333
2022-11-08T13:29:11.122Z,331
2022-11-08T13:30:10.759Z,336
2022-11-08T13:31:11.041Z,341
2022-11-08T13:32:10.514Z,343
2022-11-08T13:33:11.033Z,340
2022-11-08T13:34:10.772Z,345
2022-11-08T13:35:11.277Z,335
2022-11-08T13:36:10.671Z,332
2022-11-08T13:37:10.137Z,328
2022-11-08T13:38:10.518Z,336
2022-11-08T13:39:10.888Z,339
2022-11-08T13:40:11.178Z,342
2022-11-08T13:41:10.657Z,337
2022-11-08T13:42:10.785Z,328
2022-11-08T13:43:11.026Z,333
2022-11-08T13:44:10.331Z,332
2022-11-08T13:45:10.587Z,334
2022-11-08T13:46:11.215Z,333
2022-11-08T13:47:10.487Z,330
2022-11-08T13:48:13.546Z,329
2022-11-08T13:49:10.730Z,336
2022-11-08T13:51:10.872Z,354
2022-11-08T13:52:10.890Z,343
2022-11-08T13:53:11.160Z,334
2022-11-08T13:54:15.072Z,346
2022-11-08T13:55:11.009Z,337
2022-11-08T13:56:15.395Z,338
2022-11-08T13:57:10.520Z,334
2022-11-08T13:58:10.508Z,329
2022-11-08T13:59:10.342Z,327
2022-11-08T14:00:16.270Z,337
2022-11-08T14:01:10.676Z,340
2022-11-08T14:02:16.180Z,342
2022-11-08T14:03:10.447Z,333
2022-11-08T14:05:11.274Z,335
2022-11-08T14:06:10.516Z,338
2022-11-08T14:08:11.161Z,336
2022-11-08T14:09:11.096Z,333
2022-11-08T14:10:11.205Z,332
2022-11-08T14:14:11.108Z,334
2022-11-08T14:15:10.846Z,343
2022-11-08T14:17:10.958Z,345
2022-11-08T14:18:10.789Z,333
2022-11-08T14:19:10.072Z,336
2022-11-08T14:20:10.251Z,329
2022-11-08T14:22:10.654Z,335
2022-11-08T14:23:10.949Z,339
2022-11-08T14:24:10.862Z,336
2022-11-08T14:25:11.112Z,353
2022-11-08T14:26:10.350Z,335
2022-11-08T14:27:10.540Z,342
2022-11-08T14:28:10.586Z,341
2022-11-08T14:30:11.196Z,333
2022-11-08T14:31:10.738Z,337
2022-11-08T14:33:10.304Z,338
2022-11-08T14:34:10.948Z,335
2022-11-08T14:35:10.189Z,350
2022-11-08T14:36:29.537Z,351
2022-11-08T14:37:10.469Z,339